createdAt,value
2023-05-08T00:00:18.005Z,13.02
2023-05-08T00:02:44.715Z,12.98
2023-05-08T00:05:11.426Z,12.80
2023-05-08T00:07:38.193Z,12.38
2023-05-08T00:10:06.596Z,11.38
2023-05-08T00:12:33.393Z,10.50
2023-05-08T00:15:00.832Z,11.57
2023-05-08T00:17:27.465Z,11.02
2023-05-08T00:19:54.127Z,10.77
2023-05-08T00:22:21.064Z,11.57
2023-05-08T00:24:47.793Z,11.70
2023-05-08T00:27:14.672Z,12.20
2023-05-08T00:29:41.379Z,11.07
2023-05-08T00:32:08.202Z,11.82
2023-05-08T00:34:35.429Z,12.07
2023-05-08T00:37:03.594Z,13.70
2023-05-08T00:39:30.756Z,13.18
2023-05-08T00:41:57.392Z,12.60
2023-05-08T00:44:23.991Z,12.13
2023-05-08T00:46:51.126Z,12.98
2023-05-08T00:49:18.325Z,12.98
2023-05-08T00:51:47.206Z,12.65
2023-05-08T00:54:14.378Z,12.38
2023-05-08T00:56:41.211Z,11.95
2023-05-08T00:59:10.332Z,11.95
2023-05-08T01:01:37.877Z,12.55
2023-05-08T01:04:05.131Z,12.23
2023-05-08T01:06:32.003Z,12.25
2023-05-08T01:08:58.819Z,12.68
2023-05-08T01:11:31.204Z,11.75
2023-05-08T01:14:20.138Z,12.07
2023-05-08T01:17:04.928Z,12.93
2023-05-08T01:19:58.955Z,12.20
2023-05-08T01:22:49.439Z,12.57
2023-05-08T01:25:53.640Z,12.70
2023-05-08T01:31:32.064Z,13.10
2023-05-08T01:34:23.637Z,13.95
2023-05-08T01:36:56.118Z,14.15
2023-05-08T01:39:28.730Z,14.33
2023-05-08T01:42:03.092Z,13.13
2023-05-08T01:44:37.369Z,13.88
2023-05-08T01:47:10.057Z,14.65
2023-05-08T01:49:46.503Z,16.00
2023-05-08T01:52:21.862Z,16.77
2023-05-08T01:55:24.693Z,16.10
2023-05-08T01:57:55.029Z,15.75
2023-05-08T02:00:25.538Z,13.70
2023-05-08T02:02:54.425Z,13.93
2023-05-08T02:05:22.833Z,14.50
2023-05-08T02:07:50.566Z,15.00
2023-05-08T02:10:17.861Z,15.32
2023-05-08T02:12:45.676Z,14.85
2023-05-08T02:15:14.717Z,15.25
2023-05-08T02:17:43.525Z,15.77
2023-05-08T02:20:15.007Z,17.80
2023-05-08T02:22:49.176Z,17.58
2023-05-08T02:25:16.618Z,19.08
2023-05-08T02:27:46.555Z,18.90
2023-05-08T02:30:15.561Z,20.08
2023-05-08T02:32:47.878Z,20.15
2023-05-08T02:35:18.184Z,21.58
2023-05-08T02:37:47.959Z,23.85
2023-05-08T02:40:16.893Z,24.45
2023-05-08T02:42:44.356Z,24.48
2023-05-08T02:45:12.372Z,24.88
2023-05-08T02:48:04.810Z,28.10
2023-05-08T02:50:43.482Z,26.55
2023-05-08T02:53:16.221Z,27.42
2023-05-08T02:56:00.346Z,26.80
2023-05-08T02:58:38.434Z,29.13
2023-05-08T03:01:11.525Z,27.33
2023-05-08T03:03:44.781Z,30.48
2023-05-08T03:08:51.864Z,29.23
2023-05-08T03:11:22.704Z,30.60
2023-05-08T03:13:51.558Z,29.88
2023-05-08T03:16:22.124Z,30.73
2023-05-08T03:19:23.024Z,32.45
2023-05-08T03:21:52.054Z,33.60
2023-05-08T03:24:20.503Z,34.72
2023-05-08T03:26:47.140Z,33.53
2023-05-08T03:29:15.695Z,36.70
2023-05-08T03:31:43.568Z,37.65
2023-05-08T03:34:12.560Z,38.35
2023-05-08T03:36:39.929Z,36.65
2023-05-08T03:39:07.746Z,39.08
2023-05-08T03:41:34.679Z,37.45
2023-05-08T03:44:03.388Z,37.28
2023-05-08T03:46:32.093Z,38.85
2023-05-08T03:49:00.479Z,39.45
2023-05-08T03:51:28.473Z,37.97
2023-05-08T03:53:55.145Z,40.50
2023-05-08T03:56:22.376Z,38.10
2023-05-08T03:59:03.016Z,39.75
2023-05-08T04:01:40.807Z,39.78
2023-05-08T04:04:17.725Z,40.88
2023-05-08T04:07:13.677Z,41.15
2023-05-08T04:09:51.627Z,41.80
2023-05-08T04:12:22.051Z,40.83
2023-05-08T04:14:56.937Z,43.75
2023-05-08T04:17:34.868Z,43.53
2023-05-08T04:20:04.513Z,42.78
2023-05-08T04:22:35.705Z,41.67
2023-05-08T04:25:05.561Z,43.58
2023-05-08T04:27:32.485Z,43.83
2023-05-08T04:29:59.613Z,44.75
2023-05-08T04:32:27.751Z,45.78
2023-05-08T04:34:55.442Z,43.80
2023-05-08T04:37:31.400Z,46.08
2023-05-08T04:39:58.655Z,46.80
2023-05-08T04:42:28.561Z,44.95
2023-05-08T04:44:55.223Z,43.35
2023-05-08T04:47:22.168Z,44.90
2023-05-08T04:49:48.781Z,43.63
2023-05-08T04:52:15.336Z,44.83
2023-05-08T04:54:41.990Z,44.60
2023-05-08T04:57:08.606Z,45.75
2023-05-08T04:59:35.255Z,49.10
2023-05-08T05:02:02.712Z,46.65
2023-05-08T05:04:30.181Z,46.60
2023-05-08T05:07:03.361Z,44.70
2023-05-08T05:09:30.090Z,45.78
2023-05-08T05:11:58.171Z,47.88
2023-05-08T05:14:25.011Z,44.65
2023-05-08T05:16:51.555Z,46.70
2023-05-08T05:19:19.031Z,46.10
2023-05-08T05:21:46.456Z,47.80
2023-05-08T05:24:13.147Z,46.42
2023-05-08T05:26:39.890Z,47.08
2023-05-08T05:29:06.510Z,44.83
2023-05-08T05:31:33.629Z,45.35
2023-05-08T05:34:00.622Z,48.70
2023-05-08T05:36:27.225Z,47.20
2023-05-08T05:38:53.816Z,48.45
2023-05-08T05:41:20.457Z,48.20
2023-05-08T05:43:47.025Z,48.13
2023-05-08T05:46:13.624Z,56.50
2023-05-08T05:48:40.231Z,60.90
2023-05-08T05:51:06.877Z,60.58
2023-05-08T05:53:33.463Z,61.97
2023-05-08T05:56:00.045Z,65.15
2023-05-08T05:58:28.466Z,63.53
2023-05-08T06:00:55.180Z,67.55
2023-05-08T06:03:22.172Z,68.55
2023-05-08T06:05:48.799Z,67.20
2023-05-08T06:08:17.907Z,64.53
2023-05-08T06:10:44.683Z,66.35
2023-05-08T06:13:11.437Z,66.15
2023-05-08T06:15:38.127Z,65.13
2023-05-08T06:18:04.926Z,64.50
2023-05-08T06:20:31.527Z,58.15
2023-05-08T06:22:58.187Z,56.63
2023-05-08T06:25:25.450Z,56.80
2023-05-08T06:27:52.034Z,55.35
2023-05-08T06:30:18.636Z,55.78
2023-05-08T06:32:45.374Z,54.03
2023-05-08T06:35:12.522Z,55.17
2023-05-08T06:37:39.328Z,52.85
2023-05-08T06:42:36.463Z,54.42
2023-05-08T06:45:04.252Z,52.90
2023-05-08T06:47:31.055Z,54.65
2023-05-08T06:49:58.036Z,53.45
2023-05-08T06:52:25.772Z,56.17
2023-05-08T06:54:52.687Z,54.28
2023-05-08T06:57:19.289Z,57.90
2023-05-08T06:59:45.866Z,54.88
2023-05-08T07:02:12.558Z,58.65
2023-05-08T07:04:39.288Z,57.53
2023-05-08T07:07:06.941Z,58.95
2023-05-08T07:09:33.622Z,57.22
2023-05-08T07:12:00.200Z,58.38
2023-05-08T07:14:27.634Z,56.97
2023-05-08T07:16:54.565Z,59.72
2023-05-08T07:19:22.625Z,57.78
2023-05-08T07:21:49.479Z,58.78
2023-05-08T07:24:16.281Z,57.97
2023-05-08T07:26:42.894Z,56.50
2023-05-08T07:29:09.404Z,57.33
2023-05-08T07:31:39.535Z,58.58
2023-05-08T07:34:07.364Z,58.17
2023-05-08T07:36:34.059Z,59.38
2023-05-08T07:39:00.617Z,60.13
2023-05-08T07:41:27.234Z,60.80
2023-05-08T07:43:53.932Z,62.40
2023-05-08T07:46:21.001Z,57.47
2023-05-08T07:48:47.698Z,58.90
2023-05-08T07:51:14.788Z,60.85
2023-05-08T07:53:41.473Z,62.03
2023-05-08T07:56:08.614Z,61.90
2023-05-08T07:58:35.188Z,59.15
2023-05-08T08:01:02.213Z,57.70
2023-05-08T08:03:29.412Z,58.67
2023-05-08T08:05:56.276Z,55.63
2023-05-08T08:08:22.944Z,55.22
2023-05-08T08:10:50.266Z,51.92
2023-05-08T08:13:17.809Z,51.95
2023-05-08T08:15:44.480Z,50.15
2023-05-08T08:18:11.266Z,53.28
2023-05-08T08:20:38.085Z,53.75
2023-05-08T08:23:04.654Z,54.10
2023-05-08T08:25:31.265Z,53.70
2023-05-08T08:28:02.461Z,55.60
2023-05-08T08:30:29.259Z,59.53
2023-05-08T08:32:55.947Z,58.75
2023-05-08T08:35:29.274Z,60.50
2023-05-08T08:37:58.964Z,57.35
2023-05-08T08:40:25.876Z,55.83
2023-05-08T08:42:52.496Z,57.22
2023-05-08T08:45:19.130Z,56.70
2023-05-08T08:47:48.399Z,53.05
2023-05-08T08:50:16.035Z,46.92
2023-05-08T08:53:01.045Z,45.10
2023-05-08T08:55:28.026Z,43.90
2023-05-08T08:58:08.954Z,45.35
2023-05-08T09:00:37.369Z,45.83
2023-05-08T09:03:06.990Z,43.42
2023-05-08T09:05:34.164Z,43.10
2023-05-08T09:08:01.392Z,40.95
2023-05-08T09:10:28.237Z,38.15
2023-05-08T09:12:54.938Z,36.25
2023-05-08T09:15:22.198Z,34.88
2023-05-08T09:17:48.866Z,31.73
2023-05-08T09:20:16.682Z,30.90
2023-05-08T09:22:44.596Z,32.08
2023-05-08T09:25:11.648Z,27.83
2023-05-08T09:27:38.532Z,27.85
2023-05-08T09:30:07.712Z,27.50
2023-05-08T09:32:37.288Z,24.77
2023-05-08T09:35:05.662Z,23.73
2023-05-08T09:37:32.372Z,22.35
2023-05-08T09:40:15.186Z,22.17
2023-05-08T09:42:41.838Z,23.00
2023-05-08T09:45:09.205Z,22.83
2023-05-08T09:47:37.465Z,20.58
2023-05-08T09:50:07.066Z,21.67
2023-05-08T09:52:34.757Z,22.42
2023-05-08T09:55:06.116Z,21.73
2023-05-08T09:57:36.504Z,23.15
2023-05-08T10:00:11.027Z,21.13
2023-05-08T10:02:40.147Z,20.00
2023-05-08T10:05:27.540Z,21.30
2023-05-08T10:07:54.329Z,22.52
2023-05-08T10:10:26.848Z,24.00
2023-05-08T10:12:56.196Z,23.08
2023-05-08T10:15:29.496Z,23.65
2023-05-08T10:20:31.961Z,23.58
2023-05-08T10:22:59.705Z,23.95
2023-05-08T10:25:31.859Z,25.98
2023-05-08T10:28:16.364Z,25.15
2023-05-08T10:30:50.140Z,26.02
2023-05-08T10:33:21.197Z,25.42
2023-05-08T10:35:48.341Z,25.88
2023-05-08T10:38:16.627Z,26.23
2023-05-08T10:40:43.543Z,25.83
2023-05-08T10:43:11.340Z,27.50
2023-05-08T10:45:38.478Z,27.10
2023-05-08T10:48:19.379Z,26.10
2023-05-08T10:51:11.096Z,25.63
2023-05-08T10:54:04.918Z,23.85
2023-05-08T10:58:59.285Z,27.85
2023-05-08T11:01:27.096Z,29.67
2023-05-08T11:03:56.119Z,29.67
2023-05-08T11:06:46.849Z,31.00
2023-05-08T11:09:27.079Z,32.28
2023-05-08T11:12:08.319Z,29.98
2023-05-08T11:14:38.264Z,31.55
2023-05-08T11:17:05.965Z,32.33
2023-05-08T11:19:32.848Z,32.67
2023-05-08T11:22:15.632Z,31.65
2023-05-08T11:25:11.780Z,29.13
2023-05-08T11:27:50.697Z,30.13
2023-05-08T11:30:35.157Z,32.50
2023-05-08T11:33:05.254Z,30.00
2023-05-08T11:35:43.160Z,28.70
2023-05-08T11:38:18.743Z,30.80
2023-05-08T11:41:00.728Z,30.95
2023-05-08T11:43:33.654Z,33.22
2023-05-08T11:46:02.060Z,32.83
2023-05-08T11:48:28.894Z,30.17
2023-05-08T11:50:55.656Z,31.85
2023-05-08T11:53:22.496Z,31.48
2023-05-08T11:55:49.837Z,32.13
2023-05-08T11:58:18.550Z,31.92
2023-05-08T12:00:46.458Z,31.48
2023-05-08T12:03:20.970Z,30.60
2023-05-08T12:05:49.058Z,30.80
2023-05-08T12:08:17.811Z,31.30
2023-05-08T12:10:47.401Z,31.80
2023-05-08T12:13:22.201Z,32.45
2023-05-08T12:15:59.915Z,30.85
2023-05-08T12:18:28.783Z,32.15
2023-05-08T12:21:00.635Z,32.17
2023-05-08T12:23:29.524Z,30.33
2023-05-08T12:26:00.205Z,30.15
2023-05-08T12:28:27.304Z,29.80
2023-05-08T12:30:54.477Z,31.23
2023-05-08T12:33:21.869Z,30.45
2023-05-08T12:35:48.716Z,31.13
2023-05-08T12:38:15.335Z,30.23
2023-05-08T12:40:46.679Z,31.77
2023-05-08T12:43:13.549Z,30.95
2023-05-08T12:45:42.482Z,32.45
2023-05-08T12:48:15.478Z,31.85
2023-05-08T12:50:44.312Z,31.45
2023-05-08T12:53:12.728Z,30.17
2023-05-08T12:55:51.822Z,30.13
2023-05-08T12:58:19.180Z,27.60
2023-05-08T13:00:47.941Z,27.38
2023-05-08T13:03:25.338Z,27.30
2023-05-08T13:05:53.476Z,26.88
2023-05-08T13:08:20.268Z,28.63
2023-05-08T13:10:51.045Z,28.45
2023-05-08T13:13:19.751Z,29.92
2023-05-08T13:15:46.787Z,29.65
2023-05-08T13:18:14.076Z,33.05
2023-05-08T13:20:41.288Z,31.45
2023-05-08T13:23:08.963Z,31.13
2023-05-08T13:25:37.417Z,28.90
2023-05-08T13:28:05.013Z,29.20
2023-05-08T13:30:31.664Z,29.83
2023-05-08T13:32:58.290Z,27.92
2023-05-08T13:35:25.392Z,26.55
2023-05-08T13:37:51.971Z,25.42
2023-05-08T13:40:18.833Z,26.83
2023-05-08T13:42:45.469Z,26.23
2023-05-08T13:45:14.881Z,26.13
2023-05-08T13:47:42.555Z,25.00
2023-05-08T13:50:10.552Z,25.20
2023-05-08T13:52:38.310Z,23.02
2023-05-08T13:55:06.596Z,22.52
2023-05-08T13:57:33.480Z,22.15
2023-05-08T14:00:00.206Z,21.50
2023-05-08T14:02:27.180Z,19.00
2023-05-08T14:04:54.190Z,20.33
2023-05-08T14:07:20.820Z,21.27
2023-05-08T14:09:47.659Z,21.33
2023-05-08T14:12:14.717Z,21.65
2023-05-08T14:14:41.450Z,21.00
2023-05-08T14:17:08.560Z,21.55
2023-05-08T14:19:35.216Z,22.35
2023-05-08T14:22:02.196Z,21.52
2023-05-08T14:24:28.812Z,21.30
2023-05-08T14:26:55.419Z,21.25
2023-05-08T14:29:22.095Z,21.58
2023-05-08T14:31:48.867Z,22.40
2023-05-08T14:34:15.549Z,20.60
2023-05-08T14:36:42.127Z,20.08
2023-05-08T14:39:09.129Z,20.90
2023-05-08T14:41:36.962Z,20.75
2023-05-08T14:44:03.576Z,20.42
2023-05-08T14:46:30.400Z,21.60
2023-05-08T14:48:57.138Z,21.48
2023-05-08T14:51:23.704Z,20.55
2023-05-08T14:53:50.414Z,22.08
2023-05-08T14:56:19.111Z,20.92
2023-05-08T14:58:46.123Z,21.15
2023-05-08T15:01:12.704Z,20.08
2023-05-08T15:03:39.412Z,21.55
2023-05-08T15:06:07.405Z,19.95
2023-05-08T15:08:34.043Z,20.65
2023-05-08T15:11:00.798Z,20.50
2023-05-08T15:13:27.491Z,19.77
2023-05-08T15:15:54.262Z,18.35
2023-05-08T15:18:20.970Z,18.98
2023-05-08T15:20:47.541Z,18.80
2023-05-08T15:23:14.313Z,18.85
2023-05-08T15:25:40.941Z,19.30
2023-05-08T15:28:07.607Z,17.48
2023-05-08T15:30:34.250Z,17.15
2023-05-08T15:33:00.914Z,17.70
2023-05-08T15:35:28.038Z,15.77
2023-05-08T15:37:54.603Z,16.10
2023-05-08T15:40:21.342Z,15.25
2023-05-08T15:42:47.918Z,15.55
2023-05-08T15:45:15.908Z,13.45
2023-05-08T15:47:42.665Z,14.30
2023-05-08T15:50:09.630Z,14.27
2023-05-08T15:52:36.171Z,13.40
2023-05-08T15:55:03.050Z,12.63
2023-05-08T15:57:29.636Z,13.95
2023-05-08T15:59:56.228Z,12.90
2023-05-08T16:02:22.977Z,13.80
2023-05-08T16:04:49.698Z,14.13
2023-05-08T16:07:16.331Z,13.60
2023-05-08T16:09:43.276Z,13.43
2023-05-08T16:12:09.866Z,13.10
2023-05-08T16:14:36.587Z,12.57
2023-05-08T16:17:03.765Z,12.55
2023-05-08T16:19:30.530Z,12.48
2023-05-08T16:21:57.191Z,11.52
2023-05-08T16:24:23.771Z,11.45
2023-05-08T16:26:50.626Z,11.70
2023-05-08T16:29:17.177Z,10.95
2023-05-08T16:31:43.825Z,11.25
2023-05-08T16:34:10.484Z,10.32
2023-05-08T16:36:37.215Z,10.35
2023-05-08T16:39:04.012Z,10.60
2023-05-08T16:41:30.649Z,9.65
2023-05-08T16:43:57.190Z,9.13
2023-05-08T16:46:29.839Z,9.50
2023-05-08T16:48:57.392Z,9.32
2023-05-08T16:51:23.977Z,8.55
2023-05-08T16:53:50.680Z,7.93
2023-05-08T16:56:17.259Z,8.27
2023-05-08T16:58:43.841Z,8.88
2023-05-08T17:01:11.982Z,7.85
2023-05-08T17:03:38.727Z,7.97
2023-05-08T17:06:08.935Z,8.50
2023-05-08T17:08:35.563Z,7.63
2023-05-08T17:11:02.117Z,7.88
2023-05-08T17:13:28.810Z,6.78
2023-05-08T17:15:56.119Z,6.80
2023-05-08T17:18:22.747Z,8.45
2023-05-08T17:20:50.987Z,7.03
2023-05-08T17:23:17.667Z,7.80
2023-05-08T17:25:44.485Z,8.48
2023-05-08T17:28:11.227Z,8.50
2023-05-08T17:30:38.313Z,11.20
2023-05-08T17:33:05.216Z,13.77
2023-05-08T17:35:35.683Z,15.90
2023-05-08T17:38:02.581Z,16.27
2023-05-08T17:40:29.959Z,17.30
2023-05-08T17:42:56.688Z,19.85
2023-05-08T17:45:24.128Z,21.05
2023-05-08T17:47:50.970Z,19.23
2023-05-08T17:50:18.455Z,17.40
2023-05-08T17:52:45.250Z,18.25
2023-05-08T17:55:12.043Z,19.40
2023-05-08T17:57:38.733Z,20.17
2023-05-08T18:00:08.572Z,22.90
2023-05-08T18:02:35.341Z,22.77
2023-05-08T18:05:02.250Z,23.63
2023-05-08T18:07:29.071Z,23.67
2023-05-08T18:09:56.270Z,21.92
2023-05-08T18:12:23.156Z,21.38
2023-05-08T18:14:49.851Z,21.42
2023-05-08T18:17:19.543Z,22.15
2023-05-08T18:19:46.673Z,21.27
2023-05-08T18:22:13.635Z,22.83
2023-05-08T18:24:40.458Z,22.42
2023-05-08T18:27:07.376Z,22.23
2023-05-08T18:29:34.190Z,21.50
2023-05-08T18:32:00.796Z,20.58
2023-05-08T18:34:27.472Z,22.33
2023-05-08T18:36:54.933Z,21.70
2023-05-08T18:39:22.863Z,23.83
2023-05-08T18:41:52.550Z,22.85
2023-05-08T18:44:19.273Z,22.80
2023-05-08T18:46:46.581Z,23.98
2023-05-08T18:49:13.264Z,21.52
2023-05-08T18:51:39.956Z,22.30
2023-05-08T18:54:06.817Z,22.35
2023-05-08T18:56:34.332Z,22.10
2023-05-08T18:59:02.912Z,21.85
2023-05-08T19:01:29.710Z,21.90
2023-05-08T19:03:58.459Z,23.88
2023-05-08T19:06:25.270Z,22.42
2023-05-08T19:08:52.239Z,20.67
2023-05-08T19:11:19.019Z,21.63
2023-05-08T19:13:45.565Z,20.13
2023-05-08T19:16:12.139Z,19.65
2023-05-08T19:18:38.856Z,18.88
2023-05-08T19:21:06.534Z,19.83
2023-05-08T19:23:33.190Z,20.02
2023-05-08T19:25:59.855Z,19.75
2023-05-08T19:28:26.390Z,21.02
2023-05-08T19:30:53.002Z,21.48
2023-05-08T19:33:22.472Z,19.58
2023-05-08T19:35:49.078Z,18.02
2023-05-08T19:38:15.745Z,19.02
2023-05-08T19:40:55.409Z,18.10
2023-05-08T19:43:24.564Z,16.88
2023-05-08T19:45:51.196Z,15.15
2023-05-08T19:48:20.092Z,16.80
2023-05-08T19:50:46.930Z,15.18
2023-05-08T19:53:13.720Z,15.27
2023-05-08T19:55:40.686Z,14.45
2023-05-08T19:58:07.268Z,15.00
2023-05-08T20:00:33.952Z,15.40
2023-05-08T20:03:00.640Z,15.27
2023-05-08T20:05:27.511Z,16.88
2023-05-08T20:07:54.193Z,16.50
2023-05-08T20:10:20.835Z,16.20
2023-05-08T20:12:47.464Z,16.15
2023-05-08T20:15:14.279Z,16.45
2023-05-08T20:17:41.139Z,17.90
2023-05-08T20:20:08.530Z,16.40
2023-05-08T20:22:35.207Z,15.93
2023-05-08T20:25:04.216Z,16.23
2023-05-08T20:27:34.107Z,16.08
2023-05-08T20:30:00.769Z,17.45
2023-05-08T20:32:27.357Z,16.95
2023-05-08T20:34:53.999Z,16.52
2023-05-08T20:37:20.641Z,15.82
2023-05-08T20:39:47.216Z,15.70
2023-05-08T20:42:13.913Z,15.95
2023-05-08T20:44:40.721Z,14.73
2023-05-08T20:47:07.290Z,15.65
2023-05-08T20:49:33.912Z,14.75
2023-05-08T20:52:00.464Z,14.27
2023-05-08T20:54:29.214Z,15.02
2023-05-08T20:56:55.816Z,15.02
2023-05-08T20:59:23.491Z,13.30
2023-05-08T21:01:50.436Z,14.63
2023-05-08T21:04:17.120Z,14.40
2023-05-08T21:06:43.702Z,12.73
2023-05-08T21:09:10.335Z,12.70
2023-05-08T21:11:36.877Z,11.90
2023-05-08T21:14:03.479Z,12.10
2023-05-08T21:16:30.098Z,11.43
2023-05-08T21:18:58.470Z,11.45
2023-05-08T21:21:25.312Z,11.63
2023-05-08T21:23:51.921Z,10.60
2023-05-08T21:26:20.057Z,10.98
2023-05-08T21:28:46.685Z,10.35
2023-05-08T21:31:13.282Z,11.20
2023-05-08T21:33:39.915Z,10.32
2023-05-08T21:36:06.678Z,10.05
2023-05-08T21:38:34.120Z,10.57
2023-05-08T21:41:08.124Z,9.35
2023-05-08T21:43:38.853Z,9.40
2023-05-08T21:46:07.219Z,8.98
2023-05-08T21:48:34.213Z,9.48
2023-05-08T21:51:01.634Z,9.70
2023-05-08T21:53:28.337Z,9.27
2023-05-08T21:55:54.981Z,9.00
2023-05-08T21:58:21.595Z,9.20
2023-05-08T22:00:48.246Z,8.80
2023-05-08T22:03:14.992Z,9.35
2023-05-08T22:05:41.734Z,8.50
2023-05-08T22:08:08.311Z,9.13
2023-05-08T22:10:37.572Z,8.65
2023-05-08T22:13:04.632Z,8.15
2023-05-08T22:15:31.310Z,9.23
2023-05-08T22:17:59.146Z,8.68
2023-05-08T22:20:26.142Z,9.43
2023-05-08T22:22:52.776Z,7.70
2023-05-08T22:25:21.699Z,8.60
2023-05-08T22:27:48.612Z,8.00
2023-05-08T22:30:15.247Z,9.05
2023-05-08T22:32:42.780Z,8.43
2023-05-08T22:35:09.557Z,8.73
2023-05-08T22:37:36.772Z,8.07
2023-05-08T22:40:03.627Z,7.90
2023-05-08T22:42:30.274Z,7.82
2023-05-08T22:44:57.071Z,8.07
2023-05-08T22:47:23.705Z,8.45
2023-05-08T22:49:50.594Z,8.25
2023-05-08T22:52:17.289Z,9.35
2023-05-08T22:54:43.858Z,8.38
2023-05-08T22:57:10.540Z,8.95
2023-05-08T22:59:37.273Z,8.30
2023-05-08T23:02:03.860Z,9.18
2023-05-08T23:04:30.696Z,9.68
2023-05-08T23:06:57.319Z,8.68
2023-05-08T23:09:23.958Z,8.70
2023-05-08T23:11:51.410Z,9.45
2023-05-08T23:14:18.009Z,9.30
2023-05-08T23:16:45.941Z,9.20
2023-05-08T23:19:12.612Z,8.73
2023-05-08T23:21:39.159Z,9.10
2023-05-08T23:24:06.041Z,9.38
2023-05-08T23:26:32.852Z,9.35
2023-05-08T23:28:59.473Z,9.25
2023-05-08T23:31:27.564Z,9.27
2023-05-08T23:33:54.205Z,9.07
2023-05-08T23:36:20.858Z,9.25
2023-05-08T23:38:47.491Z,9.48
2023-05-08T23:41:14.078Z,9.02
2023-05-08T23:43:40.660Z,9.25
2023-05-08T23:46:07.306Z,8.75
2023-05-08T23:48:33.844Z,8.90
2023-05-08T23:51:00.467Z,10.05
2023-05-08T23:53:27.007Z,9.80
2023-05-08T23:55:53.550Z,9.60
2023-05-08T23:58:20.103Z,10.27
